Time;durP1;ratioP1;P1;durP2;ratioP2;P2;SDS_P1;SDS_P2;PMS_P1;PMS_P2;Temp;Humidity;BMP_temperature;BMP_pressure;BME280_temperature;BME280_humidity;BME280_pressure;Samples;Min_cycle;Max_cycle;Signal;HPM_P1;HPM_P2
2023/09/03 00:01:44;;;;;;;8.98;7.90;;;15.20;99.90;;;;;;5070901;28;20039;-59
2023/09/03 00:04:10;;;;;;;8.32;7.10;;;15.20;99.90;;;;;;5068212;28;20090;-60
2023/09/03 00:06:35;;;;;;;9.18;7.43;;;15.20;99.90;;;;;;5070919;28;20423;-59
2023/09/03 00:09:03;;;;;;;8.73;7.50;;;15.30;99.90;;;;;;5070956;28;20044;-57
2023/09/03 00:11:29;;;;;;;9.07;6.97;;;15.20;99.90;;;;;;5070840;28;20116;-61
2023/09/03 00:13:55;;;;;;;10.05;7.30;;;15.30;99.90;;;;;;5070057;28;20443;-61
2023/09/03 00:16:20;;;;;;;9.88;7.32;;;15.20;99.90;;;;;;5070895;28;20089;-57
2023/09/03 00:18:47;;;;;;;9.77;8.07;;;15.10;99.90;;;;;;5070642;28;20036;-57
2023/09/03 00:21:13;;;;;;;8.30;7.13;;;15.00;99.90;;;;;;5071007;28;20033;-57
2023/09/03 00:23:39;;;;;;;9.15;7.72;;;14.90;99.90;;;;;;5070500;28;20036;-58
2023/09/03 00:26:05;;;;;;;8.43;7.53;;;14.80;99.90;;;;;;5071009;28;20064;-56
2023/09/03 00:28:31;;;;;;;8.85;7.70;;;14.80;99.90;;;;;;5070467;28;20048;-57
2023/09/03 00:31:10;;;;;;;10.05;7.82;;;14.70;99.90;;;;;;5070374;28;20044;-60
2023/09/03 00:33:37;;;;;;;10.50;7.97;;;14.70;99.90;;;;;;5070433;28;20041;-59
2023/09/03 00:36:08;;;;;;;9.50;8.45;;;14.70;99.90;;;;;;5070619;28;20036;-58
2023/09/03 00:38:34;;;;;;;9.85;8.02;;;14.70;99.90;;;;;;5069756;28;20036;-57
2023/09/03 00:41:00;;;;;;;8.68;7.78;;;14.60;99.90;;;;;;5070616;28;20460;-58
2023/09/03 00:43:27;;;;;;;11.70;8.23;;;14.60;99.90;;;;;;5071030;28;20495;-56
2023/09/03 00:45:53;;;;;;;9.02;8.13;;;14.60;99.90;;;;;;5070637;28;20119;-59
2023/09/03 00:48:23;;;;;;;10.60;8.20;;;14.70;99.90;;;;;;5052744;28;20036;-56
2023/09/03 00:50:50;;;;;;;9.30;8.30;;;14.70;99.90;;;;;;5056048;28;20060;-61
2023/09/03 00:53:18;;;;;;;9.48;7.93;;;14.70;99.90;;;;;;5074240;28;20112;-59
2023/09/03 00:55:44;;;;;;;9.77;8.75;;;14.70;99.90;;;;;;5074289;28;20075;-60
2023/09/03 00:58:11;;;;;;;11.13;9.50;;;14.60;99.90;;;;;;5074039;28;20039;-57
2023/09/03 01:00:37;;;;;;;11.70;10.10;;;14.60;99.90;;;;;;5072463;28;20037;-58
2023/09/03 01:03:04;;;;;;;12.50;10.57;;;14.50;99.90;;;;;;5056155;28;20113;-57
2023/09/03 01:05:30;;;;;;;11.90;10.38;;;14.50;99.90;;;;;;5073951;28;20111;-61
2023/09/03 01:07:58;;;;;;;11.13;9.90;;;14.40;99.90;;;;;;5072385;28;20036;-56
2023/09/03 01:10:39;;;;;;;12.50;10.75;;;14.50;99.90;;;;;;5073655;28;20032;-58
2023/09/03 01:13:15;;;;;;;12.70;10.27;;;14.50;99.90;;;;;;5072534;28;20055;-58
2023/09/03 01:15:47;;;;;;;12.52;10.98;;;14.50;99.90;;;;;;5072517;28;20036;-60
2023/09/03 01:18:21;;;;;;;12.25;10.80;;;14.40;99.90;;;;;;5073493;28;20045;-58
2023/09/03 01:21:16;;;;;;;13.55;10.90;;;14.40;99.90;;;;;;5073521;28;20048;-60
2023/09/03 01:24:02;;;;;;;14.45;10.98;;;14.40;99.90;;;;;;5073746;28;20500;-57
2023/09/03 01:27:33;;;;;;;12.77;11.45;;;14.30;99.90;;;;;;5073171;28;20052;-61
2023/09/03 01:30:01;;;;;;;12.80;11.15;;;14.40;99.90;;;;;;4996082;28;20099;-55
2023/09/03 01:32:27;;;;;;;13.27;11.50;;;14.30;99.90;;;;;;5013761;28;20448;-58
2023/09/03 01:34:54;;;;;;;12.90;11.50;;;14.40;99.90;;;;;;5049947;28;20049;-56
2023/09/03 01:37:20;;;;;;;13.23;11.82;;;14.50;99.90;;;;;;5073485;28;20044;-56
2023/09/03 01:39:46;;;;;;;14.00;12.15;;;14.50;99.90;;;;;;5073061;28;20044;-59
2023/09/03 01:42:11;;;;;;;15.95;12.20;;;14.50;99.90;;;;;;5072984;28;20049;-62
2023/09/03 01:44:37;;;;;;;14.00;11.90;;;14.50;99.90;;;;;;5073137;28;20036;-62
2023/09/03 01:47:22;;;;;;;13.48;11.93;;;14.60;99.90;;;;;;5073172;28;20559;-60
2023/09/03 01:49:53;;;;;;;;;;;14.60;99.90;;;;;;5073331;28;20044;-61
2023/09/03 01:52:25;;;;;;;14.75;12.05;;;14.60;99.90;;;;;;5072611;28;19923;-57
2023/09/03 01:54:52;;;;;;;14.65;12.98;;;14.60;99.90;;;;;;5071571;28;20048;-60
2023/09/03 01:57:20;;;;;;;14.75;13.10;;;14.70;99.90;;;;;;5072724;28;20040;-61
2023/09/03 01:59:51;;;;;;;12.85;11.45;;;14.70;99.90;;;;;;5072407;28;20043;-58
2023/09/03 02:02:19;;;;;;;13.68;12.27;;;14.70;99.90;;;;;;5072352;28;20518;-57
2023/09/03 02:04:44;;;;;;;12.05;9.73;;;14.70;99.90;;;;;;5072896;28;20450;-62
2023/09/03 02:07:10;;;;;;;9.45;8.00;;;14.60;99.90;;;;;;5072534;28;20036;-58
2023/09/03 02:09:36;;;;;;;11.13;7.65;;;14.70;99.90;;;;;;5072587;28;20032;-56
2023/09/03 02:12:02;;;;;;;8.38;6.60;;;14.50;99.90;;;;;;5071263;28;20041;-57
2023/09/03 02:14:28;;;;;;;7.75;6.75;;;14.60;99.90;;;;;;5072512;28;20052;-61
2023/09/03 02:16:54;;;;;;;9.90;7.82;;;14.50;99.90;;;;;;5072566;28;20468;-56
2023/09/03 02:19:20;;;;;;;10.00;8.23;;;14.50;99.90;;;;;;5071106;28;20185;-58
2023/09/03 02:21:46;;;;;;;11.02;8.85;;;14.50;99.90;;;;;;5072544;28;20517;-58
2023/09/03 02:24:12;;;;;;;11.82;9.93;;;14.40;99.90;;;;;;5072773;28;20064;-59
2023/09/03 02:26:42;;;;;;;9.63;8.60;;;14.40;99.90;;;;;;5072394;28;20086;-55
2023/09/03 02:29:08;;;;;;;10.38;9.00;;;14.30;99.90;;;;;;5071975;28;20064;-59
2023/09/03 02:31:34;;;;;;;9.75;8.45;;;14.20;99.90;;;;;;5071041;28;20496;-58
2023/09/03 02:34:00;;;;;;;8.20;7.30;;;14.20;99.90;;;;;;5072294;28;20037;-59
2023/09/03 02:36:25;;;;;;;8.25;6.03;;;14.20;99.90;;;;;;5072195;28;20046;-58
2023/09/03 02:39:02;;;;;;;7.25;6.13;;;14.10;99.90;;;;;;5072235;28;20446;-60
2023/09/03 02:41:31;;;;;;;6.30;5.63;;;14.10;99.90;;;;;;5104002;28;20049;-58
2023/09/03 02:43:58;;;;;;;6.60;5.80;;;14.10;99.90;;;;;;5072290;28;20094;-59
2023/09/03 02:46:24;;;;;;;6.93;6.22;;;14.00;99.90;;;;;;5071795;28;20036;-57
2023/09/03 02:48:51;;;;;;;7.80;5.57;;;14.00;99.90;;;;;;5072361;28;20450;-59
2023/09/03 02:51:17;;;;;;;6.82;5.88;;;13.90;99.90;;;;;;5070696;28;20549;-58
2023/09/03 02:53:45;;;;;;;6.72;6.03;;;13.80;99.90;;;;;;5071755;28;20037;-57
2023/09/03 02:56:14;;;;;;;7.57;6.18;;;13.80;99.90;;;;;;5069847;28;20060;-62
2023/09/03 02:58:40;;;;;;;7.10;6.40;;;13.70;99.90;;;;;;5071815;28;20036;-58
2023/09/03 03:01:07;;;;;;;7.00;6.28;;;13.70;99.90;;;;;;5071005;28;20037;-59
2023/09/03 03:03:33;;;;;;;6.90;6.20;;;13.70;99.90;;;;;;5071785;28;20112;-60
2023/09/03 03:05:59;;;;;;;7.43;6.65;;;13.60;99.90;;;;;;5070440;28;20134;-59
2023/09/03 03:08:25;;;;;;;7.20;6.32;;;13.60;99.90;;;;;;5070264;28;20042;-61
2023/09/03 03:10:51;;;;;;;7.32;6.22;;;13.60;99.90;;;;;;5071560;28;20127;-59
2023/09/03 03:13:17;;;;;;;8.73;7.78;;;13.50;99.90;;;;;;5070850;28;20074;-55
2023/09/03 03:15:42;;;;;;;8.48;6.85;;;13.50;99.90;;;;;;5071415;28;20043;-55
2023/09/03 03:18:08;;;;;;;7.20;6.50;;;13.50;99.90;;;;;;5071391;28;20044;-58
2023/09/03 03:20:35;;;;;;;7.30;6.57;;;13.50;99.90;;;;;;5071201;28;20047;-57
2023/09/03 03:23:00;;;;;;;8.27;6.80;;;13.50;99.90;;;;;;5071366;28;20040;-57
2023/09/03 03:25:26;;;;;;;7.47;6.68;;;13.40;99.90;;;;;;5071213;28;20039;-55
2023/09/03 03:27:52;;;;;;;7.95;7.15;;;13.40;99.90;;;;;;5071083;28;20040;-59
2023/09/03 03:30:18;;;;;;;7.75;6.95;;;13.30;99.90;;;;;;5070796;28;20048;-60
2023/09/03 03:32:43;;;;;;;7.70;6.93;;;13.30;99.90;;;;;;5071361;28;20137;-59
2023/09/03 03:35:09;;;;;;;7.07;6.35;;;13.30;99.90;;;;;;5071086;28;20036;-61
2023/09/03 03:37:35;;;;;;;7.85;7.15;;;13.20;99.90;;;;;;5071472;28;20037;-58
2023/09/03 03:40:01;;;;;;;8.88;7.97;;;13.20;99.90;;;;;;5071377;28;20051;-60
2023/09/03 03:42:27;;;;;;;9.30;8.30;;;13.30;99.90;;;;;;5053104;28;20074;-61
2023/09/03 03:44:52;;;;;;;8.35;7.53;;;13.30;99.90;;;;;;5069593;28;20040;-56
2023/09/03 03:47:18;;;;;;;9.90;8.75;;;13.30;99.90;;;;;;5071187;28;20487;-58
2023/09/03 03:49:44;;;;;;;11.15;8.98;;;13.30;99.90;;;;;;5071114;28;20043;-58
2023/09/03 03:52:09;;;;;;;9.05;8.15;;;13.40;99.90;;;;;;5071188;28;20060;-59
2023/09/03 03:54:35;;;;;;;7.85;7.05;;;13.30;99.90;;;;;;5071038;28;20098;-58
2023/09/03 03:57:01;;;;;;;8.07;6.95;;;13.30;99.90;;;;;;5071255;28;20404;-58
2023/09/03 03:59:27;;;;;;;7.65;6.85;;;13.30;99.90;;;;;;5071147;28;20037;-58
2023/09/03 04:01:53;;;;;;;9.15;8.25;;;13.20;99.90;;;;;;5069701;28;20087;-58
2023/09/03 04:04:21;;;;;;;7.65;6.72;;;13.20;99.90;;;;;;5070724;28;20064;-57
2023/09/03 04:06:47;;;;;;;9.00;8.10;;;13.20;99.90;;;;;;5070830;28;20052;-55
2023/09/03 04:09:12;;;;;;;8.55;7.28;;;13.20;99.90;;;;;;5069823;28;20032;-56
2023/09/03 04:11:38;;;;;;;7.38;6.40;;;13.10;99.90;;;;;;5069805;28;20123;-59
2023/09/03 04:14:04;;;;;;;9.20;4.60;;;13.20;99.90;;;;;;5070982;28;20044;-55
2023/09/03 04:16:29;;;;;;;8.20;7.40;;;13.20;99.90;;;;;;5070906;28;20028;-56
2023/09/03 04:18:55;;;;;;;8.48;6.80;;;13.10;99.90;;;;;;5071073;28;20090;-59
2023/09/03 04:21:21;;;;;;;8.38;7.53;;;13.20;99.90;;;;;;5070892;28;20166;-57
2023/09/03 04:23:47;;;;;;;8.15;7.18;;;13.20;99.90;;;;;;5071750;28;20424;-57
2023/09/03 04:26:13;;;;;;;8.65;6.68;;;13.30;99.90;;;;;;5074358;28;20043;-58
2023/09/03 04:28:39;;;;;;;8.00;7.20;;;13.20;99.90;;;;;;5073835;28;20153;-58
2023/09/03 04:31:05;;;;;;;8.25;6.72;;;13.20;99.90;;;;;;5073992;28;20131;-59
2023/09/03 04:33:30;;;;;;;6.68;5.97;;;13.20;99.90;;;;;;5074688;28;20036;-59
2023/09/03 04:35:58;;;;;;;6.47;3.35;;;13.20;99.90;;;;;;5074551;28;20089;-59
2023/09/03 04:38:24;;;;;;;5.90;4.65;;;13.30;99.90;;;;;;5074744;28;20087;-56
2023/09/03 04:40:50;;;;;;;5.78;4.50;;;13.30;99.90;;;;;;5074552;28;20472;-60
2023/09/03 04:43:17;;;;;;;6.47;5.07;;;13.20;99.90;;;;;;5074250;28;20123;-60
2023/09/03 04:45:53;;;;;;;5.80;4.90;;;13.20;99.90;;;;;;5074266;28;20075;-58
2023/09/03 04:48:19;;;;;;;6.47;5.25;;;13.20;99.90;;;;;;5072433;28;20451;-60
2023/09/03 04:50:45;;;;;;;5.43;4.40;;;13.10;99.90;;;;;;5074007;28;20548;-59
2023/09/03 04:53:12;;;;;;;5.80;4.22;;;13.10;99.90;;;;;;5074374;28;20121;-57
2023/09/03 04:55:38;;;;;;;5.30;4.40;;;13.10;99.90;;;;;;5073995;28;20040;-59
2023/09/03 04:58:04;;;;;;;5.85;5.00;;;13.00;99.90;;;;;;5074120;28;20032;-55
2023/09/03 05:00:30;;;;;;;6.05;5.28;;;13.00;99.90;;;;;;5073776;28;20472;-55
2023/09/03 05:03:01;;;;;;;6.43;5.72;;;12.90;99.90;;;;;;5074045;28;20048;-56
2023/09/03 05:05:27;;;;;;;7.38;6.50;;;13.00;99.90;;;;;;5072791;28;20102;-58
2023/09/03 05:07:52;;;;;;;7.57;6.78;;;12.90;99.90;;;;;;5073576;28;20040;-56
2023/09/03 05:10:18;;;;;;;9.02;6.60;;;12.90;99.90;;;;;;5072864;28;20563;-58
2023/09/03 05:12:44;;;;;;;7.47;6.38;;;12.90;99.90;;;;;;5056155;28;20044;-59
2023/09/03 05:15:13;;;;;;;7.55;6.57;;;12.90;99.90;;;;;;5073872;28;20037;-60
2023/09/03 05:17:39;;;;;;;7.10;6.00;;;13.10;99.90;;;;;;5073392;28;20032;-58
2023/09/03 05:20:06;;;;;;;7.47;5.45;;;13.00;99.90;;;;;;5073504;28;20437;-59
2023/09/03 05:22:33;;;;;;;6.28;5.20;;;13.00;99.90;;;;;;5073533;28;20049;-54
2023/09/03 05:24:59;;;;;;;5.78;4.70;;;13.00;99.90;;;;;;5073681;28;20340;-56
2023/09/03 05:27:24;;;;;;;7.75;5.43;;;13.10;99.90;;;;;;5073777;28;20491;-55
2023/09/03 05:29:50;;;;;;;6.55;5.72;;;13.10;99.90;;;;;;5073169;28;20556;-57
2023/09/03 05:32:16;;;;;;;7.53;6.50;;;13.20;99.90;;;;;;5073015;28;20097;-60
2023/09/03 05:34:42;;;;;;;8.38;6.57;;;13.10;99.90;;;;;;5072612;28;20044;-59
2023/09/03 05:37:07;;;;;;;7.50;6.13;;;13.10;99.90;;;;;;5073316;28;20036;-59
2023/09/03 05:39:33;;;;;;;7.82;6.55;;;13.20;99.90;;;;;;5072643;28;20032;-60
2023/09/03 05:41:59;;;;;;;8.20;7.15;;;13.20;99.90;;;;;;5072458;28;20491;-56
2023/09/03 05:44:24;;;;;;;7.47;6.68;;;13.30;99.90;;;;;;5071057;28;20040;-59
2023/09/03 05:46:50;;;;;;;8.95;7.30;;;13.40;99.90;;;;;;5072867;28;20083;-62
2023/09/03 05:49:16;;;;;;;5.38;4.57;;;13.40;99.90;;;;;;5073209;28;20069;-61
2023/09/03 05:51:42;;;;;;;5.13;2.72;;;13.40;99.90;;;;;;5073149;28;20135;-55
2023/09/03 05:54:08;;;;;;;4.05;3.33;;;13.50;99.90;;;;;;5072999;28;20158;-61
2023/09/03 05:56:36;;;;;;;4.30;3.80;;;13.50;99.90;;;;;;5072855;28;20032;-57
2023/09/03 05:59:05;;;;;;;4.30;3.72;;;13.50;99.90;;;;;;5054725;28;20048;-57
2023/09/03 06:01:32;;;;;;;4.50;2.88;;;13.50;99.90;;;;;;5071874;28;20036;-56
2023/09/03 06:04:02;;;;;;;5.45;4.18;;;13.50;99.90;;;;;;5072486;28;20080;-62
2023/09/03 06:06:28;;;;;;;6.57;4.63;;;13.60;99.90;;;;;;5072654;28;20162;-60
2023/09/03 06:08:54;;;;;;;6.13;5.28;;;13.60;99.90;;;;;;5072784;28;20115;-60
2023/09/03 06:11:23;;;;;;;7.32;5.63;;;13.70;99.90;;;;;;5072650;28;20158;-59
2023/09/03 06:13:48;;;;;;;9.07;7.78;;;13.60;99.90;;;;;;5072783;28;20840;-57
2023/09/03 06:16:14;;;;;;;8.82;7.75;;;13.70;99.90;;;;;;5072493;28;20044;-58
2023/09/03 06:18:40;;;;;;;9.93;8.93;;;13.70;99.90;;;;;;5072415;28;20036;-59
2023/09/03 06:21:05;;;;;;;11.40;9.82;;;13.80;99.90;;;;;;5072615;28;20038;-56
2023/09/03 06:23:31;;;;;;;10.93;9.20;;;13.80;99.90;;;;;;5070646;28;20037;-58
2023/09/03 06:25:57;;;;;;;11.13;9.50;;;13.90;99.90;;;;;;5072366;28;20037;-57
2023/09/03 06:28:22;;;;;;;9.30;8.40;;;13.90;99.90;;;;;;5053606;28;20036;-53
2023/09/03 06:30:48;;;;;;;11.60;9.15;;;13.90;99.90;;;;;;5071488;28;20559;-62
2023/09/03 06:33:14;;;;;;;10.88;9.45;;;14.00;99.90;;;;;;5072275;28;20109;-56
2023/09/03 06:35:40;;;;;;;11.30;10.10;;;14.10;99.90;;;;;;5070650;28;20048;-59
2023/09/03 06:38:06;;;;;;;13.05;11.77;;;14.10;99.90;;;;;;5070981;28;20061;-59
2023/09/03 06:40:32;;;;;;;13.02;11.73;;;14.10;99.90;;;;;;5072170;28;20090;-57
2023/09/03 06:42:57;;;;;;;13.27;8.32;;;14.30;99.90;;;;;;5070911;28;20410;-59
2023/09/03 06:45:23;;;;;;;15.48;12.85;;;14.30;99.90;;;;;;5070817;28;20046;-57
2023/09/03 06:47:49;;;;;;;13.52;12.13;;;14.40;99.90;;;;;;5071251;28;20396;-57
2023/09/03 06:50:14;;;;;;;14.15;12.52;;;14.50;99.90;;;;;;5071891;28;20041;-58
2023/09/03 06:52:41;;;;;;;14.57;13.05;;;14.60;99.90;;;;;;5071787;28;20036;-57
2023/09/03 06:55:07;;;;;;;12.80;11.38;;;14.60;99.90;;;;;;5070341;28;20052;-60
2023/09/03 06:57:33;;;;;;;13.38;11.73;;;14.60;99.90;;;;;;5070435;28;20093;-59
2023/09/03 06:59:59;;;;;;;14.23;8.65;;;14.60;99.90;;;;;;5071785;28;20497;-56
2023/09/03 07:02:26;;;;;;;13.48;12.07;;;14.70;99.90;;;;;;5070226;28;20050;-58
2023/09/03 07:04:53;;;;;;;13.93;12.32;;;14.70;99.90;;;;;;5070435;28;20217;-56
2023/09/03 07:07:19;;;;;;;14.02;12.63;;;14.70;99.90;;;;;;5071669;28;20090;-56
2023/09/03 07:09:44;;;;;;;14.38;12.90;;;14.80;99.90;;;;;;5068699;28;20040;-57
2023/09/03 07:12:10;;;;;;;15.05;12.70;;;14.90;99.90;;;;;;5053573;28;20037;-61
2023/09/03 07:14:36;;;;;;;13.50;11.88;;;14.90;99.90;;;;;;5071385;28;20545;-58
2023/09/03 07:17:02;;;;;;;13.48;12.05;;;15.00;99.90;;;;;;5070377;28;20040;-59
2023/09/03 07:19:30;;;;;;;15.45;13.13;;;15.10;99.90;;;;;;5071558;28;20101;-58
2023/09/03 07:21:56;;;;;;;14.80;10.75;;;15.10;99.90;;;;;;5071584;28;20040;-56
2023/09/03 07:24:22;;;;;;;15.57;13.98;;;15.20;99.90;;;;;;5071175;28;20035;-58
2023/09/03 07:26:48;;;;;;;16.33;14.63;;;15.30;99.90;;;;;;5070004;28;20127;-61
2023/09/03 07:29:14;;;;;;;17.65;14.68;;;15.30;99.90;;;;;;5069582;28;20048;-59
2023/09/03 07:31:41;;;;;;;21.45;11.60;;;15.40;99.90;;;;;;5071480;28;20040;-57
2023/09/03 07:34:10;;;;;;;17.05;12.30;;;15.60;99.90;;;;;;5071271;28;20036;-57
2023/09/03 07:36:37;;;;;;;16.77;14.65;;;15.70;99.90;;;;;;5071367;28;20090;-59
2023/09/03 07:39:08;;;;;;;17.95;13.98;;;15.80;99.90;;;;;;5071239;28;20419;-58
2023/09/03 07:41:34;;;;;;;15.45;13.68;;;15.90;99.90;;;;;;5070134;28;20044;-56
2023/09/03 07:44:00;;;;;;;17.83;13.13;;;15.90;99.90;;;;;;5071156;28;20024;-57
2023/09/03 07:46:26;;;;;;;18.30;12.68;;;15.90;99.90;;;;;;5071194;28;20039;-57
2023/09/03 07:48:52;;;;;;;16.63;11.45;;;16.20;99.90;;;;;;5071254;28;20064;-58
2023/09/03 07:51:19;;;;;;;13.18;11.80;;;16.20;99.90;;;;;;5071262;28;20114;-58
2023/09/03 07:53:48;;;;;;;15.23;11.82;;;16.20;99.90;;;;;;5070704;28;20048;-61
2023/09/03 07:56:15;;;;;;;13.20;11.80;;;16.30;99.90;;;;;;5071242;28;20036;-58
2023/09/03 07:58:42;;;;;;;14.35;12.23;;;16.50;99.90;;;;;;5038411;28;20046;-59
2023/09/03 08:01:11;;;;;;;14.25;12.57;;;16.60;99.90;;;;;;5074917;28;20051;-58
2023/09/03 08:03:38;;;;;;;12.30;11.10;;;16.60;99.90;;;;;;5074887;28;20488;-56
2023/09/03 08:06:05;;;;;;;13.95;10.75;;;16.80;99.90;;;;;;5074842;28;20036;-58
2023/09/03 08:08:31;;;;;;;12.27;11.02;;;16.80;99.90;;;;;;5075067;28;20032;-59
2023/09/03 08:10:57;;;;;;;12.63;11.32;;;16.80;99.90;;;;;;5073481;28;20119;-59
2023/09/03 08:13:23;;;;;;;11.82;10.20;;;17.00;99.90;;;;;;5075064;28;20028;-58
2023/09/03 08:15:49;;;;;;;11.15;10.05;;;16.90;99.90;;;;;;5074802;28;20044;-58
2023/09/03 08:18:16;;;;;;;13.13;10.77;;;17.10;99.90;;;;;;5075093;28;20036;-58
2023/09/03 08:20:42;;;;;;;12.25;11.00;;;17.00;99.90;;;;;;5074767;28;20041;-60
2023/09/03 08:23:11;;;;;;;12.75;11.35;;;17.10;99.90;;;;;;5074624;28;20038;-60
2023/09/03 08:25:37;;;;;;;12.90;11.15;;;17.10;99.90;;;;;;5073652;28;20029;-57
2023/09/03 08:28:04;;;;;;;13.05;11.70;;;17.30;99.90;;;;;;5074524;28;20131;-60
2023/09/03 08:30:29;;;;;;;12.30;11.10;;;17.30;99.90;;;;;;5071291;28;20080;-56
2023/09/03 08:32:55;;;;;;;12.20;10.63;;;17.40;99.90;;;;;;5073403;28;20072;-58
2023/09/03 08:35:21;;;;;;;12.40;9.70;;;17.40;99.90;;;;;;5074398;28;20049;-55
2023/09/03 08:37:47;;;;;;;12.98;10.45;;;17.40;99.90;;;;;;5074485;28;20043;-58
2023/09/03 08:40:13;;;;;;;11.75;9.93;;;17.40;99.90;;;;;;5074035;28;20041;-59
2023/09/03 08:42:40;;;;;;;12.38;10.25;;;17.40;99.90;;;;;;5073985;28;20114;-57
2023/09/03 08:45:10;;;;;;;11.20;10.07;;;17.50;99.90;;;;;;5074363;28;20067;-60
2023/09/03 08:47:40;;;;;;;12.60;10.82;;;17.40;99.90;;;;;;5072673;28;20112;-57
2023/09/03 08:50:08;;;;;;;12.48;10.88;;;17.50;99.90;;;;;;5074507;28;20078;-57
2023/09/03 08:52:35;;;;;;;12.35;9.57;;;17.60;99.90;;;;;;5072751;28;20048;-57
2023/09/03 08:55:02;;;;;;;13.80;10.10;;;17.80;99.90;;;;;;5072854;28;20036;-58
2023/09/03 08:57:28;;;;;;;12.15;9.25;;;17.70;99.90;;;;;;5074312;28;20430;-55
2023/09/03 08:59:56;;;;;;;10.82;8.40;;;17.80;99.90;;;;;;5073710;28;20395;-59
2023/09/03 09:02:23;;;;;;;12.75;9.82;;;18.00;99.90;;;;;;5072357;28;20471;-61
2023/09/03 09:04:49;;;;;;;13.10;9.57;;;17.90;99.90;;;;;;5073788;28;20048;-57
2023/09/03 09:07:15;;;;;;;13.80;10.20;;;18.00;99.90;;;;;;5072518;28;20136;-58
2023/09/03 09:09:43;;;;;;;11.10;9.90;;;18.10;99.90;;;;;;5073071;28;20513;-58
2023/09/03 09:12:17;;;;;;;10.80;9.40;;;18.10;99.90;;;;;;5073524;28;20028;-58
2023/09/03 09:14:59;;;;;;;13.00;9.93;;;18.20;99.90;;;;;;5073668;28;20036;-60
2023/09/03 09:17:25;;;;;;;12.27;10.50;;;18.40;99.90;;;;;;5073770;28;20047;-59
2023/09/03 09:19:50;;;;;;;9.80;8.00;;;18.50;99.90;;;;;;5072115;28;20040;-63
2023/09/03 09:22:16;;;;;;;10.25;7.15;;;18.70;99.90;;;;;;5073600;28;20040;-57
2023/09/03 09:24:45;;;;;;;8.90;5.55;;;18.80;99.90;;;;;;5073834;28;20046;-57
2023/09/03 09:27:16;;;;;;;10.30;7.00;;;18.90;99.90;;;;;;5073478;28;20039;-55
2023/09/03 09:29:43;;;;;;;8.98;6.07;;;19.00;99.90;;;;;;5073398;28;20441;-56
2023/09/03 09:32:23;;;;;;;8.10;6.03;;;19.10;99.90;;;;;;5071730;28;20106;-59
2023/09/03 09:34:49;;;;;;;5.93;4.68;;;19.20;99.90;;;;;;5073640;28;20127;-58
2023/09/03 09:37:15;;;;;;;6.80;5.13;;;19.30;99.90;;;;;;5072252;28;20111;-61
2023/09/03 09:39:49;;;;;;;7.15;4.68;;;19.40;99.90;;;;;;5072899;28;20048;-58
2023/09/03 09:42:18;;;;;;;5.95;3.85;;;19.50;99.90;;;;;;5072366;28;20040;-58
2023/09/03 09:44:53;;;;;;;5.78;4.20;;;19.50;99.90;;;;;;5073148;28;20384;-57
2023/09/03 09:47:20;;;;;;;6.70;4.78;;;19.60;99.90;;;;;;5073409;28;20032;-53
2023/09/03 09:49:47;;;;;;;7.05;4.20;;;19.60;99.90;;;;;;5073070;28;20071;-60
2023/09/03 09:52:14;;;;;;;7.50;4.90;;;19.60;99.90;;;;;;5073348;28;20369;-57
2023/09/03 09:54:44;;;;;;;8.68;5.80;;;19.70;99.90;;;;;;5071704;28;20041;-56
2023/09/03 09:57:10;;;;;;;8.25;5.75;;;19.70;99.90;;;;;;5071066;28;20036;-57
2023/09/03 09:59:35;;;;;;;7.22;5.47;;;19.90;99.90;;;;;;5071996;28;20094;-59
2023/09/03 10:02:14;;;;;;;7.60;5.65;;;19.90;99.90;;;;;;5070744;28;20056;-58
2023/09/03 10:04:44;;;;;;;9.57;5.70;;;19.90;99.90;;;;;;5072912;28;20074;-60
2023/09/03 10:07:11;;;;;;;9.15;5.10;;;20.10;99.90;;;;;;5072283;28;20037;-60
2023/09/03 10:09:38;;;;;;;9.07;5.43;;;20.20;99.90;;;;;;5072574;28;20048;-62
2023/09/03 10:12:05;;;;;;;6.38;4.15;;;20.30;99.90;;;;;;5072331;28;20043;-61
2023/09/03 10:14:31;;;;;;;5.88;3.67;;;20.40;99.90;;;;;;5073090;28;20392;-62
2023/09/03 10:17:00;;;;;;;5.88;2.90;;;20.40;99.90;;;;;;5072451;28;20075;-57
2023/09/03 10:19:49;;;;;;;4.85;3.20;;;20.40;99.90;;;;;;5072397;28;20201;-60
2023/09/03 10:22:18;;;;;;;6.32;4.03;;;20.50;99.90;;;;;;5064055;28;20044;-58
2023/09/03 10:24:52;;;;;;;7.07;4.93;;;20.50;99.90;;;;;;5072675;28;20040;-62
2023/09/03 10:27:23;;;;;;;6.97;4.07;;;20.50;99.90;;;;;;5070773;28;20158;-57
2023/09/03 10:29:50;;;;;;;7.07;3.75;;;20.60;99.90;;;;;;5072131;28;20076;-59
2023/09/03 10:32:17;;;;;;;6.38;3.35;;;20.60;99.90;;;;;;5071699;28;20056;-59
2023/09/03 10:34:43;;;;;;;6.45;3.25;;;20.70;99.90;;;;;;5072139;28;20504;-56
2023/09/03 10:37:15;;;;;;;5.22;3.00;;;20.80;99.90;;;;;;5071786;28;20044;-59
2023/09/03 10:39:45;;;;;;;6.43;3.28;;;20.90;99.90;;;;;;5071259;28;20036;-58
2023/09/03 10:42:27;;;;;;;5.55;3.53;;;21.00;99.90;;;;;;5072111;28;20039;-60
2023/09/03 10:44:54;;;;;;;6.43;3.60;;;21.10;99.90;;;;;;5071409;28;20032;-57
2023/09/03 10:47:21;;;;;;;5.25;3.08;;;21.20;99.90;;;;;;5070430;28;20028;-63
2023/09/03 10:49:48;;;;;;;6.18;3.30;;;21.30;99.90;;;;;;5072147;28;20044;-58
2023/09/03 10:52:26;;;;;;;5.00;3.15;;;21.30;99.90;;;;;;5072228;28;20133;-60
2023/09/03 10:55:15;;;;;;;5.90;2.97;;;21.30;99.90;;;;;;5071601;28;20036;-57
2023/09/03 10:57:43;;;;;;;5.25;3.00;;;21.40;99.90;;;;;;5071160;28;20474;-59
2023/09/03 11:00:23;;;;;;;4.50;3.28;;;21.60;99.90;;;;;;5069964;28;20036;-57
2023/09/03 11:02:49;;;;;;;6.85;4.00;;;21.80;99.90;;;;;;5071328;28;20063;-59
2023/09/03 11:05:23;;;;;;;7.00;3.10;;;21.90;99.90;;;;;;5070087;28;20032;-61
2023/09/03 11:08:21;;;;;;;6.63;3.00;;;22.00;99.90;;;;;;5071687;28;20101;-59
2023/09/03 11:10:48;;;;;;;5.28;2.95;;;22.10;99.90;;;;;;5070765;28;20056;-58
2023/09/03 11:13:14;;;;;;;6.45;3.40;;;22.20;99.90;;;;;;5071589;28;20043;-59
2023/09/03 11:15:48;;;;;;;6.82;2.90;;;22.40;99.90;;;;;;5071612;28;20040;-59
2023/09/03 11:18:19;;;;;;;6.75;3.03;;;22.50;99.90;;;;;;5071357;28;20044;-58
2023/09/03 11:20:47;;;;;;;5.85;2.78;;;22.70;99.90;;;;;;5071681;28;20075;-63
2023/09/03 11:23:13;;;;;;;5.63;2.60;;;22.70;99.90;;;;;;5071389;28;20119;-60
2023/09/03 11:25:40;;;;;;;5.25;2.60;;;22.80;99.90;;;;;;5071650;28;20040;-59
2023/09/03 11:28:08;;;;;;;4.45;2.40;;;22.90;99.90;;;;;;5071437;28;20033;-62
2023/09/03 11:30:34;;;;;;;6.13;2.85;;;22.90;99.90;;;;;;5070951;28;20059;-59
2023/09/03 11:33:01;;;;;;;4.03;2.15;;;22.90;99.90;;;;;;5070604;28;20040;-60
2023/09/03 11:35:27;;;;;;;4.20;2.08;;;22.90;99.90;;;;;;5071238;28;20044;-58
2023/09/03 11:37:53;;;;;;;5.10;2.30;;;22.90;99.90;;;;;;5069879;28;20040;-62
2023/09/03 11:40:24;;;;;;;3.80;2.17;;;23.10;99.90;;;;;;5071445;28;20383;-58
2023/09/03 11:42:50;;;;;;;3.63;1.75;;;23.20;99.90;;;;;;5071463;28;20040;-62
2023/09/03 11:45:16;;;;;;;4.00;1.60;;;23.30;99.90;;;;;;5069555;28;20043;-57
2023/09/03 11:47:50;;;;;;;3.33;1.23;;;23.50;99.90;;;;;;5070269;28;20044;-57
2023/09/03 11:50:16;;;;;;;4.05;1.60;;;23.60;99.90;;;;;;5070311;28;20479;-58
2023/09/03 11:52:58;;;;;;;4.40;1.33;;;23.60;99.90;;;;;;5071098;28;20076;-60
2023/09/03 11:55:28;;;;;;;4.38;1.23;;;23.80;99.90;;;;;;5070573;28;20045;-58
2023/09/03 11:57:58;;;;;;;2.97;1.40;;;23.90;99.90;;;;;;5071695;28;20044;-56
2023/09/03 12:00:24;;;;;;;4.18;1.30;;;24.00;99.90;;;;;;5070850;28;20087;-59
2023/09/03 12:02:51;;;;;;;2.55;1.23;;;24.10;99.90;;;;;;5069090;28;20116;-62
2023/09/03 12:05:17;;;;;;;2.60;0.90;;;24.20;99.90;;;;;;5071121;28;20029;-59
2023/09/03 12:07:43;;;;;;;2.88;1.02;;;24.30;99.90;;;;;;5071069;28;20403;-56
2023/09/03 12:10:09;;;;;;;2.55;0.88;;;24.50;99.90;;;;;;5069921;28;20060;-58
2023/09/03 12:12:35;;;;;;;3.88;0.82;;;24.70;99.90;;;;;;5069561;28;20040;-58
2023/09/03 12:15:00;;;;;;;3.05;1.08;;;24.70;99.90;;;;;;5069876;28;20037;-57
2023/09/03 12:17:28;;;;;;;3.70;1.40;;;24.80;99.90;;;;;;5071331;28;20032;-57
2023/09/03 12:19:54;;;;;;;4.15;1.23;;;24.70;99.90;;;;;;5070829;28;20040;-56
2023/09/03 12:22:21;;;;;;;3.88;1.25;;;24.70;99.90;;;;;;5070787;28;20563;-57
2023/09/03 12:24:48;;;;;;;3.97;1.10;;;24.60;99.90;;;;;;5071003;28;20124;-61
2023/09/03 12:27:15;;;;;;;3.63;0.88;;;24.60;99.90;;;;;;5070857;28;20492;-57
2023/09/03 12:29:41;;;;;;;3.33;1.35;;;24.70;99.90;;;;;;5071045;28;20040;-61
2023/09/03 12:32:14;;;;;;;3.92;1.20;;;24.80;99.90;;;;;;5070207;28;20076;-58
2023/09/03 12:34:40;;;;;;;4.75;1.70;;;25.00;99.90;;;;;;5069890;28;20036;-59
2023/09/03 12:37:07;;;;;;;3.17;1.50;;;25.10;99.90;;;;;;5069435;28;20098;-57
2023/09/03 12:39:34;;;;;;;2.75;1.25;;;25.10;99.90;;;;;;5070733;28;20044;-60
2023/09/03 12:42:01;;;;;;;4.05;1.42;;;25.20;99.90;;;;;;5052301;28;20060;-59
2023/09/03 12:44:28;;;;;;;4.03;1.10;;;25.40;99.90;;;;;;5070480;28;20036;-58